sensor_id;sensor_type;location;lat;lon;timestamp;temperature;humidity
81726;DHT22;71135;16.738;-14.648;2023-07-20T00:02:05;17.80;70.40
81726;DHT22;71135;16.738;-14.648;2023-07-20T00:04:34;17.80;70.30
81726;DHT22;71135;16.738;-14.648;2023-07-20T00:07:07;17.80;70.30
81726;DHT22;71135;16.738;-14.648;2023-07-20T00:09:36;17.80;70.20
81726;DHT22;71135;16.738;-14.648;2023-07-20T00:12:07;17.80;70.20
81726;DHT22;71135;16.738;-14.648;2023-07-20T00:14:36;17.80;70.40
81726;DHT22;71135;16.738;-14.648;2023-07-20T00:17:06;17.70;70.40
81726;DHT22;71135;16.738;-14.648;2023-07-20T00:19:35;17.70;70.20
81726;DHT22;71135;16.738;-14.648;2023-07-20T00:22:07;17.60;70.00
81726;DHT22;71135;16.738;-14.648;2023-07-20T00:24:37;17.60;70.10
81726;DHT22;71135;16.738;-14.648;2023-07-20T00:27:06;17.50;70.10
81726;DHT22;71135;16.738;-14.648;2023-07-20T00:29:36;17.50;70.10
81726;DHT22;71135;16.738;-14.648;2023-07-20T00:32:06;17.50;70.10
81726;DHT22;71135;16.738;-14.648;2023-07-20T00:34:35;17.50;70.20
81726;DHT22;71135;16.738;-14.648;2023-07-20T00:37:07;17.40;70.30
81726;DHT22;71135;16.738;-14.648;2023-07-20T00:39:37;17.40;70.10
81726;DHT22;71135;16.738;-14.648;2023-07-20T00:42:07;17.50;70.10
81726;DHT22;71135;16.738;-14.648;2023-07-20T00:44:36;17.40;70.20
81726;DHT22;71135;16.738;-14.648;2023-07-20T00:47:06;17.40;70.10
81726;DHT22;71135;16.738;-14.648;2023-07-20T00:49:35;17.40;69.90
81726;DHT22;71135;16.738;-14.648;2023-07-20T00:52:10;17.40;69.90
81726;DHT22;71135;16.738;-14.648;2023-07-20T00:54:44;17.30;69.90
81726;DHT22;71135;16.738;-14.648;2023-07-20T00:57:15;17.30;70.00
81726;DHT22;71135;16.738;-14.648;2023-07-20T00:59:45;17.30;70.10
81726;DHT22;71135;16.738;-14.648;2023-07-20T01:02:14;17.20;70.20
81726;DHT22;71135;16.738;-14.648;2023-07-20T01:04:43;17.20;70.10
81726;DHT22;71135;16.738;-14.648;2023-07-20T01:07:23;17.20;70.20
81726;DHT22;71135;16.738;-14.648;2023-07-20T01:10:05;17.30;70.30
81726;DHT22;71135;16.738;-14.648;2023-07-20T01:12:42;17.20;70.30
81726;DHT22;71135;16.738;-14.648;2023-07-20T01:15:12;17.20;70.50
81726;DHT22;71135;16.738;-14.648;2023-07-20T01:17:41;17.20;70.40
81726;DHT22;71135;16.738;-14.648;2023-07-20T01:20:13;17.20;70.40
81726;DHT22;71135;16.738;-14.648;2023-07-20T01:23:00;17.30;70.40
81726;DHT22;71135;16.738;-14.648;2023-07-20T01:25:45;17.40;70.20
81726;DHT22;71135;16.738;-14.648;2023-07-20T01:28:37;17.40;70.20
81726;DHT22;71135;16.738;-14.648;2023-07-20T01:31:18;17.40;70.10
81726;DHT22;71135;16.738;-14.648;2023-07-20T01:33:50;17.40;70.20
81726;DHT22;71135;16.738;-14.648;2023-07-20T01:36:22;17.40;70.10
81726;DHT22;71135;16.738;-14.648;2023-07-20T01:38:53;17.40;70.20
81726;DHT22;71135;16.738;-14.648;2023-07-20T01:41:22;17.40;70.20
81726;DHT22;71135;16.738;-14.648;2023-07-20T01:43:52;17.50;70.10
81726;DHT22;71135;16.738;-14.648;2023-07-20T01:46:23;17.50;70.00
81726;DHT22;71135;16.738;-14.648;2023-07-20T01:48:54;17.50;70.00
81726;DHT22;71135;16.738;-14.648;2023-07-20T01:51:24;17.50;70.00
81726;DHT22;71135;16.738;-14.648;2023-07-20T01:53:53;17.50;70.00
81726;DHT22;71135;16.738;-14.648;2023-07-20T01:56:22;17.50;70.20
81726;DHT22;71135;16.738;-14.648;2023-07-20T01:58:51;17.40;70.50
81726;DHT22;71135;16.738;-14.648;2023-07-20T02:01:23;17.40;70.70
81726;DHT22;71135;16.738;-14.648;2023-07-20T02:03:54;17.40;70.80
81726;DHT22;71135;16.738;-14.648;2023-07-20T02:06:23;17.30;71.00
81726;DHT22;71135;16.738;-14.648;2023-07-20T02:08:53;17.30;71.20
81726;DHT22;71135;16.738;-14.648;2023-07-20T02:11:22;17.40;71.20
81726;DHT22;71135;16.738;-14.648;2023-07-20T02:13:52;17.40;71.20
81726;DHT22;71135;16.738;-14.648;2023-07-20T02:16:23;17.30;71.20
81726;DHT22;71135;16.738;-14.648;2023-07-20T02:18:52;17.20;71.30
81726;DHT22;71135;16.738;-14.648;2023-07-20T02:21:23;17.20;71.40
81726;DHT22;71135;16.738;-14.648;2023-07-20T02:23:52;17.00;71.40
81726;DHT22;71135;16.738;-14.648;2023-07-20T02:26:21;17.00;71.50
81726;DHT22;71135;16.738;-14.648;2023-07-20T02:28:50;16.90;71.70
81726;DHT22;71135;16.738;-14.648;2023-07-20T02:31:19;16.90;71.70
81726;DHT22;71135;16.738;-14.648;2023-07-20T02:33:51;16.80;71.70
81726;DHT22;71135;16.738;-14.648;2023-07-20T02:36:20;16.80;71.70
81726;DHT22;71135;16.738;-14.648;2023-07-20T02:38:50;16.70;71.70
81726;DHT22;71135;16.738;-14.648;2023-07-20T02:41:19;16.70;71.70
81726;DHT22;71135;16.738;-14.648;2023-07-20T02:43:49;16.60;71.70
81726;DHT22;71135;16.738;-14.648;2023-07-20T02:46:19;16.50;71.70
81726;DHT22;71135;16.738;-14.648;2023-07-20T02:48:51;16.40;71.90
81726;DHT22;71135;16.738;-14.648;2023-07-20T02:51:20;16.40;72.00
81726;DHT22;71135;16.738;-14.648;2023-07-20T02:53:50;16.40;72.10
81726;DHT22;71135;16.738;-14.648;2023-07-20T02:56:19;16.30;72.30
81726;DHT22;71135;16.738;-14.648;2023-07-20T02:58:49;16.20;72.30
81726;DHT22;71135;16.738;-14.648;2023-07-20T03:01:18;16.20;72.30
81726;DHT22;71135;16.738;-14.648;2023-07-20T03:03:47;16.20;72.40
81726;DHT22;71135;16.738;-14.648;2023-07-20T03:06:19;16.20;72.50
81726;DHT22;71135;16.738;-14.648;2023-07-20T03:08:48;16.30;72.50
81726;DHT22;71135;16.738;-14.648;2023-07-20T03:11:18;16.30;72.30
81726;DHT22;71135;16.738;-14.648;2023-07-20T03:13:48;16.30;72.30
81726;DHT22;71135;16.738;-14.648;2023-07-20T03:16:18;16.20;72.20
81726;DHT22;71135;16.738;-14.648;2023-07-20T03:18:48;16.10;72.30
81726;DHT22;71135;16.738;-14.648;2023-07-20T03:21:20;16.10;72.30
81726;DHT22;71135;16.738;-14.648;2023-07-20T03:23:49;16.00;72.40
81726;DHT22;71135;16.738;-14.648;2023-07-20T03:26:19;16.00;72.40
81726;DHT22;71135;16.738;-14.648;2023-07-20T03:28:49;16.00;72.50
81726;DHT22;71135;16.738;-14.648;2023-07-20T03:31:18;16.00;72.40
81726;DHT22;71135;16.738;-14.648;2023-07-20T03:33:47;15.90;72.30
81726;DHT22;71135;16.738;-14.648;2023-07-20T03:36:20;15.80;72.50
81726;DHT22;71135;16.738;-14.648;2023-07-20T03:38:50;15.80;72.60
81726;DHT22;71135;16.738;-14.648;2023-07-20T03:41:19;15.70;72.60
81726;DHT22;71135;16.738;-14.648;2023-07-20T03:43:48;15.60;72.60
81726;DHT22;71135;16.738;-14.648;2023-07-20T03:46:18;15.60;72.70
81726;DHT22;71135;16.738;-14.648;2023-07-20T03:48:47;15.60;72.80
81726;DHT22;71135;16.738;-14.648;2023-07-20T03:51:16;15.60;72.80
81726;DHT22;71135;16.738;-14.648;2023-07-20T03:53:48;15.60;72.80
81726;DHT22;71135;16.738;-14.648;2023-07-20T03:56:17;15.60;72.80
81726;DHT22;71135;16.738;-14.648;2023-07-20T03:58:47;15.60;72.90
81726;DHT22;71135;16.738;-14.648;2023-07-20T04:01:16;15.60;72.80
81726;DHT22;71135;16.738;-14.648;2023-07-20T04:03:46;15.50;72.80
81726;DHT22;71135;16.738;-14.648;2023-07-20T04:06:18;15.50;72.80
81726;DHT22;71135;16.738;-14.648;2023-07-20T04:08:54;15.50;72.80
81726;DHT22;71135;16.738;-14.648;2023-07-20T04:11:24;15.50;72.90
81726;DHT22;71135;16.738;-14.648;2023-07-20T04:13:54;15.40;72.90
81726;DHT22;71135;16.738;-14.648;2023-07-20T04:16:26;15.40;73.00
81726;DHT22;71135;16.738;-14.648;2023-07-20T04:18:56;15.40;73.00
81726;DHT22;71135;16.738;-14.648;2023-07-20T04:21:32;15.40;73.00
81726;DHT22;71135;16.738;-14.648;2023-07-20T04:24:07;15.50;72.60
81726;DHT22;71135;16.738;-14.648;2023-07-20T04:26:38;15.50;72.60
81726;DHT22;71135;16.738;-14.648;2023-07-20T04:29:05;15.50;72.60
81726;DHT22;71135;16.738;-14.648;2023-07-20T04:31:38;15.50;72.70
81726;DHT22;71135;16.738;-14.648;2023-07-20T04:34:12;15.60;72.70
81726;DHT22;71135;16.738;-14.648;2023-07-20T04:36:42;15.60;72.80
81726;DHT22;71135;16.738;-14.648;2023-07-20T04:39:14;15.60;72.90
81726;DHT22;71135;16.738;-14.648;2023-07-20T04:41:44;15.60;72.90
81726;DHT22;71135;16.738;-14.648;2023-07-20T04:44:15;15.60;72.70
81726;DHT22;71135;16.738;-14.648;2023-07-20T04:46:44;15.60;72.90
81726;DHT22;71135;16.738;-14.648;2023-07-20T04:49:13;15.60;73.00
81726;DHT22;71135;16.738;-14.648;2023-07-20T04:51:45;15.80;73.10
81726;DHT22;71135;16.738;-14.648;2023-07-20T04:54:17;15.90;73.20
81726;DHT22;71135;16.738;-14.648;2023-07-20T04:56:47;16.00;73.30
81726;DHT22;71135;16.738;-14.648;2023-07-20T04:59:18;16.20;73.10
81726;DHT22;71135;16.738;-14.648;2023-07-20T05:01:47;16.40;72.80
81726;DHT22;71135;16.738;-14.648;2023-07-20T05:04:17;16.50;72.70
81726;DHT22;71135;16.738;-14.648;2023-07-20T05:06:46;16.70;72.50
81726;DHT22;71135;16.738;-14.648;2023-07-20T05:09:18;16.80;72.40
81726;DHT22;71135;16.738;-14.648;2023-07-20T05:11:48;16.90;72.30
81726;DHT22;71135;16.738;-14.648;2023-07-20T05:14:18;17.00;72.30
81726;DHT22;71135;16.738;-14.648;2023-07-20T05:16:49;17.00;72.20
81726;DHT22;71135;16.738;-14.648;2023-07-20T05:19:18;17.10;72.30
81726;DHT22;71135;16.738;-14.648;2023-07-20T05:21:47;17.20;72.30
81726;DHT22;71135;16.738;-14.648;2023-07-20T05:24:19;17.20;71.90
81726;DHT22;71135;16.738;-14.648;2023-07-20T05:26:48;17.40;71.70
81726;DHT22;71135;16.738;-14.648;2023-07-20T05:29:18;17.40;71.50
81726;DHT22;71135;16.738;-14.648;2023-07-20T05:31:47;17.40;71.40
81726;DHT22;71135;16.738;-14.648;2023-07-20T05:34:16;17.40;71.20
81726;DHT22;71135;16.738;-14.648;2023-07-20T05:36:45;17.40;71.20
81726;DHT22;71135;16.738;-14.648;2023-07-20T05:39:14;17.30;71.20
81726;DHT22;71135;16.738;-14.648;2023-07-20T05:41:46;17.20;71.20
81726;DHT22;71135;16.738;-14.648;2023-07-20T05:44:15;17.20;72.20
81726;DHT22;71135;16.738;-14.648;2023-07-20T05:46:44;17.30;72.60
81726;DHT22;71135;16.738;-14.648;2023-07-20T05:49:13;17.40;72.30
81726;DHT22;71135;16.738;-14.648;2023-07-20T05:51:42;17.50;71.90
81726;DHT22;71135;16.738;-14.648;2023-07-20T05:54:12;17.50;71.50
81726;DHT22;71135;16.738;-14.648;2023-07-20T05:56:42;17.50;71.30
81726;DHT22;71135;16.738;-14.648;2023-07-20T05:59:14;17.50;71.20
81726;DHT22;71135;16.738;-14.648;2023-07-20T06:01:43;17.40;71.00
81726;DHT22;71135;16.738;-14.648;2023-07-20T06:04:15;17.50;71.00
81726;DHT22;71135;16.738;-14.648;2023-07-20T06:06:44;17.50;71.50
81726;DHT22;71135;16.738;-14.648;2023-07-20T06:09:14;17.50;71.60
81726;DHT22;71135;16.738;-14.648;2023-07-20T06:11:43;17.60;71.60
81726;DHT22;71135;16.738;-14.648;2023-07-20T06:14:15;17.80;71.60
81726;DHT22;71135;16.738;-14.648;2023-07-20T06:16:44;17.90;71.10
81726;DHT22;71135;16.738;-14.648;2023-07-20T06:19:14;18.00;71.00
81726;DHT22;71135;16.738;-14.648;2023-07-20T06:21:43;18.10;70.90
81726;DHT22;71135;16.738;-14.648;2023-07-20T06:24:12;18.10;70.70
81726;DHT22;71135;16.738;-14.648;2023-07-20T06:26:42;18.20;70.60
81726;DHT22;71135;16.738;-14.648;2023-07-20T06:29:13;18.20;70.50
81726;DHT22;71135;16.738;-14.648;2023-07-20T06:31:42;18.30;70.20
81726;DHT22;71135;16.738;-14.648;2023-07-20T06:34:12;18.30;70.00
81726;DHT22;71135;16.738;-14.648;2023-07-20T06:36:41;18.40;69.10
81726;DHT22;71135;16.738;-14.648;2023-07-20T06:39:10;18.50;68.30
81726;DHT22;71135;16.738;-14.648;2023-07-20T06:41:40;18.70;68.10
81726;DHT22;71135;16.738;-14.648;2023-07-20T06:44:09;19.00;67.80
81726;DHT22;71135;16.738;-14.648;2023-07-20T06:46:41;19.20;67.20
81726;DHT22;71135;16.738;-14.648;2023-07-20T06:49:24;19.50;66.60
81726;DHT22;71135;16.738;-14.648;2023-07-20T06:51:53;19.50;65.80
81726;DHT22;71135;16.738;-14.648;2023-07-20T06:54:23;19.50;65.60
81726;DHT22;71135;16.738;-14.648;2023-07-20T06:56:52;19.40;65.20
81726;DHT22;71135;16.738;-14.648;2023-07-20T06:59:21;19.30;65.30
81726;DHT22;71135;16.738;-14.648;2023-07-20T07:01:53;19.10;65.00
81726;DHT22;71135;16.738;-14.648;2023-07-20T07:04:22;19.00;64.80
81726;DHT22;71135;16.738;-14.648;2023-07-20T07:06:52;18.80;65.00
81726;DHT22;71135;16.738;-14.648;2023-07-20T07:09:21;18.70;65.50
81726;DHT22;71135;16.738;-14.648;2023-07-20T07:11:50;18.60;65.80
81726;DHT22;71135;16.738;-14.648;2023-07-20T07:14:20;18.50;66.00
81726;DHT22;71135;16.738;-14.648;2023-07-20T07:16:49;18.50;65.90
81726;DHT22;71135;16.738;-14.648;2023-07-20T07:19:21;18.60;65.70
81726;DHT22;71135;16.738;-14.648;2023-07-20T07:21:50;18.70;65.10
81726;DHT22;71135;16.738;-14.648;2023-07-20T07:24:19;18.80;65.10
81726;DHT22;71135;16.738;-14.648;2023-07-20T07:26:49;18.90;64.50
81726;DHT22;71135;16.738;-14.648;2023-07-20T07:29:18;19.00;64.00
81726;DHT22;71135;16.738;-14.648;2023-07-20T07:31:47;19.20;63.10
81726;DHT22;71135;16.738;-14.648;2023-07-20T07:34:16;19.30;63.20
81726;DHT22;71135;16.738;-14.648;2023-07-20T07:36:48;19.30;63.10
81726;DHT22;71135;16.738;-14.648;2023-07-20T07:39:17;19.50;63.30
81726;DHT22;71135;16.738;-14.648;2023-07-20T07:41:46;19.50;63.20
81726;DHT22;71135;16.738;-14.648;2023-07-20T07:44:16;19.70;62.80
81726;DHT22;71135;16.738;-14.648;2023-07-20T07:46:45;19.70;62.60
81726;DHT22;71135;16.738;-14.648;2023-07-20T08:03:17;20.30;60.70
81726;DHT22;71135;16.738;-14.648;2023-07-20T08:44:28;21.40;57.00
81726;DHT22;71135;16.738;-14.648;2023-07-20T08:50:14;23.80;54.10
81726;DHT22;71135;16.738;-14.648;2023-07-20T08:56:29;28.10;49.40
81726;DHT22;71135;16.738;-14.648;2023-07-20T09:12:35;29.70;45.70
81726;DHT22;71135;16.738;-14.648;2023-07-20T09:19:03;30.50;45.00
81726;DHT22;71135;16.738;-14.648;2023-07-20T09:21:33;29.50;45.70
81726;DHT22;71135;16.738;-14.648;2023-07-20T09:24:09;28.50;46.50
81726;DHT22;71135;16.738;-14.648;2023-07-20T09:26:41;27.70;47.10
81726;DHT22;71135;16.738;-14.648;2023-07-20T09:35:38;26.40;49.40
81726;DHT22;71135;16.738;-14.648;2023-07-20T09:38:16;26.60;48.10
81726;DHT22;71135;16.738;-14.648;2023-07-20T09:40:48;26.70;47.90
81726;DHT22;71135;16.738;-14.648;2023-07-20T09:43:17;26.50;47.70
81726;DHT22;71135;16.738;-14.648;2023-07-20T10:19:16;25.30;49.70
81726;DHT22;71135;16.738;-14.648;2023-07-20T10:22:07;25.00;49.80
81726;DHT22;71135;16.738;-14.648;2023-07-20T10:25:22;24.80;50.10
81726;DHT22;71135;16.738;-14.648;2023-07-20T10:28:10;24.70;50.60
81726;DHT22;71135;16.738;-14.648;2023-07-20T10:34:12;24.50;50.30
81726;DHT22;71135;16.738;-14.648;2023-07-20T11:07:44;26.40;46.70
81726;DHT22;71135;16.738;-14.648;2023-07-20T11:10:19;26.80;45.90
81726;DHT22;71135;16.738;-14.648;2023-07-20T11:19:54;28.50;44.60
81726;DHT22;71135;16.738;-14.648;2023-07-20T12:05:15;26.60;46.50
81726;DHT22;71135;16.738;-14.648;2023-07-20T12:29:38;27.40;45.90
81726;DHT22;71135;16.738;-14.648;2023-07-20T12:32:07;27.50;45.50
81726;DHT22;71135;16.738;-14.648;2023-07-20T12:54:38;27.00;46.20
81726;DHT22;71135;16.738;-14.648;2023-07-20T13:29:48;26.70;46.10
81726;DHT22;71135;16.738;-14.648;2023-07-20T13:32:22;26.80;46.20
81726;DHT22;71135;16.738;-14.648;2023-07-20T14:11:28;26.50;46.00
81726;DHT22;71135;16.738;-14.648;2023-07-20T14:14:24;26.40;46.40
81726;DHT22;71135;16.738;-14.648;2023-07-20T14:20:37;26.20;46.60
81726;DHT22;71135;16.738;-14.648;2023-07-20T14:23:07;26.10;46.40
81726;DHT22;71135;16.738;-14.648;2023-07-20T14:25:36;26.00;46.60
81726;DHT22;71135;16.738;-14.648;2023-07-20T14:31:36;25.90;46.90
81726;DHT22;71135;16.738;-14.648;2023-07-20T14:34:15;25.80;46.70
81726;DHT22;71135;16.738;-14.648;2023-07-20T14:36:53;25.60;46.90
81726;DHT22;71135;16.738;-14.648;2023-07-20T14:43:19;25.30;48.00
81726;DHT22;71135;16.738;-14.648;2023-07-20T14:52:40;25.30;48.20
81726;DHT22;71135;16.738;-14.648;2023-07-20T14:58:56;25.20;48.20
81726;DHT22;71135;16.738;-14.648;2023-07-20T15:51:04;24.50;48.30
81726;DHT22;71135;16.738;-14.648;2023-07-20T15:53:33;24.40;48.20
81726;DHT22;71135;16.738;-14.648;2023-07-20T15:56:03;24.40;48.40
81726;DHT22;71135;16.738;-14.648;2023-07-20T15:58:32;24.30;48.20
81726;DHT22;71135;16.738;-14.648;2023-07-20T16:01:01;24.30;48.00
81726;DHT22;71135;16.738;-14.648;2023-07-20T16:03:31;24.20;48.10
81726;DHT22;71135;16.738;-14.648;2023-07-20T16:06:00;24.20;48.20
81726;DHT22;71135;16.738;-14.648;2023-07-20T16:08:33;24.10;47.80
81726;DHT22;71135;16.738;-14.648;2023-07-20T16:11:02;24.00;48.20
81726;DHT22;71135;16.738;-14.648;2023-07-20T16:13:31;24.00;48.40
81726;DHT22;71135;16.738;-14.648;2023-07-20T16:16:01;23.90;48.40
81726;DHT22;71135;16.738;-14.648;2023-07-20T16:18:30;23.90;48.60
81726;DHT22;71135;16.738;-14.648;2023-07-20T16:21:00;23.80;48.70
81726;DHT22;71135;16.738;-14.648;2023-07-20T16:23:31;23.80;48.50
81726;DHT22;71135;16.738;-14.648;2023-07-20T16:26:01;23.80;48.50
81726;DHT22;71135;16.738;-14.648;2023-07-20T16:28:30;23.60;48.30
81726;DHT22;71135;16.738;-14.648;2023-07-20T16:30:59;23.60;48.20
81726;DHT22;71135;16.738;-14.648;2023-07-20T16:33:28;23.50;48.40
81726;DHT22;71135;16.738;-14.648;2023-07-20T16:35:57;23.40;48.60
81726;DHT22;71135;16.738;-14.648;2023-07-20T16:38:26;23.30;48.70
81726;DHT22;71135;16.738;-14.648;2023-07-20T16:40:58;23.30;48.70
81726;DHT22;71135;16.738;-14.648;2023-07-20T16:43:27;23.30;48.50
81726;DHT22;71135;16.738;-14.648;2023-07-20T16:46:00;23.20;48.50
81726;DHT22;71135;16.738;-14.648;2023-07-20T16:48:30;23.10;48.50
81726;DHT22;71135;16.738;-14.648;2023-07-20T16:51:01;23.00;48.50
81726;DHT22;71135;16.738;-14.648;2023-07-20T16:53:31;23.00;48.50
81726;DHT22;71135;16.738;-14.648;2023-07-20T16:56:03;22.90;48.80
81726;DHT22;71135;16.738;-14.648;2023-07-20T16:58:32;22.80;48.90
81726;DHT22;71135;16.738;-14.648;2023-07-20T17:01:02;22.70;48.90
81726;DHT22;71135;16.738;-14.648;2023-07-20T17:03:33;22.60;49.10
81726;DHT22;71135;16.738;-14.648;2023-07-20T17:06:04;22.50;49.40
81726;DHT22;71135;16.738;-14.648;2023-07-20T17:08:34;22.40;49.70
81726;DHT22;71135;16.738;-14.648;2023-07-20T17:11:05;22.30;50.10
81726;DHT22;71135;16.738;-14.648;2023-07-20T17:13:35;22.30;50.00
81726;DHT22;71135;16.738;-14.648;2023-07-20T17:16:05;22.20;50.10
81726;DHT22;71135;16.738;-14.648;2023-07-20T17:18:34;22.20;50.40
81726;DHT22;71135;16.738;-14.648;2023-07-20T17:21:05;22.10;50.50
81726;DHT22;71135;16.738;-14.648;2023-07-20T17:23:34;22.10;50.90
81726;DHT22;71135;16.738;-14.648;2023-07-20T17:26:06;22.10;50.90
81726;DHT22;71135;16.738;-14.648;2023-07-20T17:28:37;22.00;50.80
81726;DHT22;71135;16.738;-14.648;2023-07-20T17:31:07;22.00;50.80
81726;DHT22;71135;16.738;-14.648;2023-07-20T17:33:36;21.90;51.00
81726;DHT22;71135;16.738;-14.648;2023-07-20T17:36:05;21.90;51.00
81726;DHT22;71135;16.738;-14.648;2023-07-20T17:38:35;21.80;50.90
81726;DHT22;71135;16.738;-14.648;2023-07-20T17:41:07;21.70;50.90
81726;DHT22;71135;16.738;-14.648;2023-07-20T17:43:36;21.70;51.10
81726;DHT22;71135;16.738;-14.648;2023-07-20T17:46:05;21.60;51.60
81726;DHT22;71135;16.738;-14.648;2023-07-20T17:48:34;21.50;51.80
81726;DHT22;71135;16.738;-14.648;2023-07-20T17:51:04;21.50;52.10
81726;DHT22;71135;16.738;-14.648;2023-07-20T17:53:33;21.40;52.20
81726;DHT22;71135;16.738;-14.648;2023-07-20T17:56:02;21.40;52.40
81726;DHT22;71135;16.738;-14.648;2023-07-20T17:58:34;21.30;52.50
81726;DHT22;71135;16.738;-14.648;2023-07-20T18:01:04;21.30;52.50
81726;DHT22;71135;16.738;-14.648;2023-07-20T18:03:33;21.10;52.80
81726;DHT22;71135;16.738;-14.648;2023-07-20T18:06:06;21.10;52.90
81726;DHT22;71135;16.738;-14.648;2023-07-20T18:08:35;21.00;53.20
81726;DHT22;71135;16.738;-14.648;2023-07-20T18:11:05;21.00;53.20
81726;DHT22;71135;16.738;-14.648;2023-07-20T18:13:38;21.00;53.10
81726;DHT22;71135;16.738;-14.648;2023-07-20T18:16:07;21.00;53.20
81726;DHT22;71135;16.738;-14.648;2023-07-20T18:18:37;21.00;53.10
81726;DHT22;71135;16.738;-14.648;2023-07-20T18:21:06;20.90;53.30
81726;DHT22;71135;16.738;-14.648;2023-07-20T18:23:35;20.90;53.50
81726;DHT22;71135;16.738;-14.648;2023-07-20T18:26:04;20.90;53.30
81726;DHT22;71135;16.738;-14.648;2023-07-20T18:28:33;20.80;53.30
81726;DHT22;71135;16.738;-14.648;2023-07-20T18:31:08;20.80;53.50
81726;DHT22;71135;16.738;-14.648;2023-07-20T18:33:37;20.80;53.50
81726;DHT22;71135;16.738;-14.648;2023-07-20T18:36:07;20.70;53.60
81726;DHT22;71135;16.738;-14.648;2023-07-20T18:38:36;20.70;53.60
81726;DHT22;71135;16.738;-14.648;2023-07-20T18:41:05;20.60;53.80
81726;DHT22;71135;16.738;-14.648;2023-07-20T18:43:34;20.60;53.70
81726;DHT22;71135;16.738;-14.648;2023-07-20T18:46:04;20.50;53.80
81726;DHT22;71135;16.738;-14.648;2023-07-20T18:48:36;20.50;54.00
81726;DHT22;71135;16.738;-14.648;2023-07-20T18:51:05;20.50;54.10
81726;DHT22;71135;16.738;-14.648;2023-07-20T18:53:35;20.30;54.30
81726;DHT22;71135;16.738;-14.648;2023-07-20T18:56:04;20.30;54.40
81726;DHT22;71135;16.738;-14.648;2023-07-20T18:58:34;20.30;54.60
81726;DHT22;71135;16.738;-14.648;2023-07-20T19:01:04;20.10;54.70
81726;DHT22;71135;16.738;-14.648;2023-07-20T19:03:36;20.00;54.90
81726;DHT22;71135;16.738;-14.648;2023-07-20T19:06:05;20.00;55.30
81726;DHT22;71135;16.738;-14.648;2023-07-20T19:08:34;19.90;55.50
81726;DHT22;71135;16.738;-14.648;2023-07-20T19:11:03;19.80;55.60
81726;DHT22;71135;16.738;-14.648;2023-07-20T19:13:34;19.70;55.60
81726;DHT22;71135;16.738;-14.648;2023-07-20T19:16:04;19.70;55.70
81726;DHT22;71135;16.738;-14.648;2023-07-20T19:18:36;19.60;55.80
81726;DHT22;71135;16.738;-14.648;2023-07-20T19:21:06;19.50;56.10
81726;DHT22;71135;16.738;-14.648;2023-07-20T19:23:35;19.50;55.80
81726;DHT22;71135;16.738;-14.648;2023-07-20T19:26:06;19.40;56.20
81726;DHT22;71135;16.738;-14.648;2023-07-20T19:28:36;19.30;56.40
81726;DHT22;71135;16.738;-14.648;2023-07-20T19:31:06;19.30;56.80
81726;DHT22;71135;16.738;-14.648;2023-07-20T19:33:38;19.20;56.90
81726;DHT22;71135;16.738;-14.648;2023-07-20T19:36:07;19.20;57.20
81726;DHT22;71135;16.738;-14.648;2023-07-20T19:38:36;19.20;57.20
81726;DHT22;71135;16.738;-14.648;2023-07-20T19:41:05;19.10;57.20
81726;DHT22;71135;16.738;-14.648;2023-07-20T19:43:34;19.00;57.40
81726;DHT22;71135;16.738;-14.648;2023-07-20T19:46:03;19.00;57.40
81726;DHT22;71135;16.738;-14.648;2023-07-20T19:48:33;18.90;57.60
81726;DHT22;71135;16.738;-14.648;2023-07-20T19:51:05;18.80;57.90
81726;DHT22;71135;16.738;-14.648;2023-07-20T19:53:35;18.70;58.10
81726;DHT22;71135;16.738;-14.648;2023-07-20T19:56:04;18.60;57.80
81726;DHT22;71135;16.738;-14.648;2023-07-20T19:58:34;18.50;58.20
81726;DHT22;71135;16.738;-14.648;2023-07-20T20:01:04;18.40;58.50
81726;DHT22;71135;16.738;-14.648;2023-07-20T20:03:33;18.40;58.70
81726;DHT22;71135;16.738;-14.648;2023-07-20T20:06:05;18.30;59.00
81726;DHT22;71135;16.738;-14.648;2023-07-20T20:08:35;18.30;59.10
81726;DHT22;71135;16.738;-14.648;2023-07-20T20:11:05;18.20;59.20
81726;DHT22;71135;16.738;-14.648;2023-07-20T20:13:34;18.20;59.30
81726;DHT22;71135;16.738;-14.648;2023-07-20T20:16:04;18.10;59.50
81726;DHT22;71135;16.738;-14.648;2023-07-20T20:18:34;18.10;59.60
81726;DHT22;71135;16.738;-14.648;2023-07-20T20:21:11;18.00;59.80
81726;DHT22;71135;16.738;-14.648;2023-07-20T20:23:41;18.00;60.00
81726;DHT22;71135;16.738;-14.648;2023-07-20T20:26:10;18.00;60.10
81726;DHT22;71135;16.738;-14.648;2023-07-20T20:28:39;17.90;60.30
81726;DHT22;71135;16.738;-14.648;2023-07-20T20:31:08;17.80;60.40
81726;DHT22;71135;16.738;-14.648;2023-07-20T20:33:38;17.80;60.50
81726;DHT22;71135;16.738;-14.648;2023-07-20T20:36:07;17.80;60.70
81726;DHT22;71135;16.738;-14.648;2023-07-20T20:38:39;17.70;60.80
81726;DHT22;71135;16.738;-14.648;2023-07-20T20:41:08;17.60;61.00
81726;DHT22;71135;16.738;-14.648;2023-07-20T20:43:37;17.60;61.20
81726;DHT22;71135;16.738;-14.648;2023-07-20T20:46:07;17.50;61.10
81726;DHT22;71135;16.738;-14.648;2023-07-20T20:48:39;17.50;61.30
81726;DHT22;71135;16.738;-14.648;2023-07-20T20:51:11;17.50;61.30
81726;DHT22;71135;16.738;-14.648;2023-07-20T20:53:43;17.50;61.60
81726;DHT22;71135;16.738;-14.648;2023-07-20T20:56:12;17.50;61.60
81726;DHT22;71135;16.738;-14.648;2023-07-20T20:58:41;17.40;61.80
81726;DHT22;71135;16.738;-14.648;2023-07-20T21:01:10;17.40;62.10
81726;DHT22;71135;16.738;-14.648;2023-07-20T21:03:40;17.20;62.20
81726;DHT22;71135;16.738;-14.648;2023-07-20T21:06:09;17.20;62.40
81726;DHT22;71135;16.738;-14.648;2023-07-20T21:08:38;17.20;62.70
81726;DHT22;71135;16.738;-14.648;2023-07-20T21:11:10;17.20;62.90
81726;DHT22;71135;16.738;-14.648;2023-07-20T21:13:39;17.20;63.20
81726;DHT22;71135;16.738;-14.648;2023-07-20T21:16:08;17.10;63.20
81726;DHT22;71135;16.738;-14.648;2023-07-20T21:18:37;17.10;63.30
81726;DHT22;71135;16.738;-14.648;2023-07-20T21:21:06;17.10;63.40
81726;DHT22;71135;16.738;-14.648;2023-07-20T21:23:35;17.00;63.60
81726;DHT22;71135;16.738;-14.648;2023-07-20T21:26:05;17.00;63.70
81726;DHT22;71135;16.738;-14.648;2023-07-20T21:28:37;17.00;63.90
81726;DHT22;71135;16.738;-14.648;2023-07-20T21:31:07;17.00;63.90
81726;DHT22;71135;16.738;-14.648;2023-07-20T21:33:37;17.00;63.90
81726;DHT22;71135;16.738;-14.648;2023-07-20T21:36:07;17.00;64.00
81726;DHT22;71135;16.738;-14.648;2023-07-20T21:38:36;16.90;64.20
81726;DHT22;71135;16.738;-14.648;2023-07-20T21:41:06;16.90;64.30
81726;DHT22;71135;16.738;-14.648;2023-07-20T21:43:38;16.90;64.40
81726;DHT22;71135;16.738;-14.648;2023-07-20T21:46:08;16.90;64.50
81726;DHT22;71135;16.738;-14.648;2023-07-20T21:48:37;16.90;64.40